Jupiter Spirit — A8ZC2 — position and weather

sailwx.info

Track history (hours):
 
Tides and Currents Weather Stations Pressure Air Temp Water Temp Dewpoint Dewpoint Depression Visibility Wind Speed Wind Dir Waves Ship Positions

Jupiter Spirit

Last reported at 2018-Jun-13 09:35 UTC. Time now 2018-Jun-20 02:10 UTC.
Position N 31°43' W 118°11'.

Length 183 m; draft 7.9 m.

Type: Cargo ship. MMSI: 636015173.

Date/timePositionNaut miles runAvg speedWind from/ knotsBaromVisibWave heightAir tempDewpointWater temp
2018-Jun-13 09:35N 31°43' W 118°11'118.7
2018-Jun-13 09:31N 31°44' W 118°10'1019.2
2018-Jun-13 08:59N 31°54' W 118°06'818.1
2018-Jun-13 08:31N 32°02' W 118°02'918.0
2018-Jun-13 08:00N 32°10' W 117°59'918.3
2018-Jun-13 07:31N 32°19' W 117°55'1018.3
2018-Jun-13 06:59N 32°27' W 117°50'918.4
2018-Jun-13 06:31N 32°35' W 117°46'918.3
2018-Jun-13 06:01N 32°44' W 117°50'917.0
2018-Jun-13 05:30N 32°52' W 117°53'816.8
2018-Jun-13 05:01N 32°60' W 117°57'713.8
2018-Jun-13 04:30N 33°06' W 117°60'510.4
2018-Jun-13 04:00N 33°11' W 118°02'510.3
2018-Jun-13 03:30N 33°16' W 118°04'510.3
2018-Jun-13 03:00N 33°21' W 118°07'610.4
2018-Jun-13 02:27N 33°26' W 118°09'510.5
2018-Jun-13 02:00N 33°30' W 118°11'510.7
2018-Jun-13 01:30N 33°35' W 118°13'510.9
2018-Jun-13 01:00N 33°41' W 118°14'4 7.3
2018-Jun-13 00:30N 33°44' W 118°16'2 4.8
2018-Jun-13 00:00N 33°46' W 118°15'0 0.1
2018-Jun-12 23:28N 33°46' W 118°15'0 0.0
2018-Jun-12 22:58N 33°46' W 118°15'0 0.0
2018-Jun-12 22:28N 33°46' W 118°15'0 0.0
2018-Jun-12 21:58N 33°46' W 118°15'0 0.0
2018-Jun-12 21:28N 33°46' W 118°15'0 0.0
2018-Jun-12 20:58N 33°46' W 118°15'0 0.0
2018-Jun-12 20:28N 33°46' W 118°15'0 0.0
2018-Jun-12 19:58N 33°46' W 118°15'0 0.0
2018-Jun-12 19:28N 33°46' W 118°15'0 0.0
2018-Jun-12 18:55N 33°46' W 118°15'0 0.0
2018-Jun-12 18:28N 33°46' W 118°15'0 0.0
2018-Jun-12 17:58N 33°46' W 118°15'0 0.0
2018-Jun-12 17:28N 33°46' W 118°15'0 0.0
2018-Jun-12 16:58N 33°46' W 118°15'0 0.0
2018-Jun-12 16:28N 33°46' W 118°15'0 0.0
2018-Jun-12 15:58N 33°46' W 118°15'0 0.0
2018-Jun-12 15:28N 33°46' W 118°15'0 0.0
2018-Jun-12 14:58N 33°46' W 118°15'0 0.0
2018-Jun-12 14:28N 33°46' W 118°15'0 0.0
2018-Jun-12 13:58N 33°46' W 118°15'0 0.0
2018-Jun-12 13:28N 33°46' W 118°15'0 0.2
2018-Jun-12 13:00N 33°46' W 118°15'1 2.1
2018-Jun-12 12:30N 33°45' W 118°16'2 3.8
2018-Jun-12 12:00N 33°43' W 118°16'2 4.0
2018-Jun-12 11:30N 33°42' W 118°14'3 5.5
2018-Jun-12 11:00N 33°39' W 118°13'4 7.1
2018-Jun-12 10:30N 33°37' W 118°11'3 6.2
2018-Jun-12 10:00N 33°34' W 118°09'5 9.5
2018-Jun-12 09:30N 33°30' W 118°07'3 6.9
2018-Jun-12 09:00N 33°26' W 118°06'4 8.3
2018-Jun-12 08:30N 33°22' W 118°04'5 9.3
2018-Jun-12 08:00N 33°18' W 118°01'5 9.8
2018-Jun-12 07:30N 33°15' W 117°57'5 9.9
2018-Jun-12 07:00N 33°11' W 117°53'611.1
2018-Jun-12 06:30N 33°07' W 117°49'713.1
2018-Jun-12 06:00N 33°02' W 117°44'713.2
2018-Jun-12 05:30N 32°57' W 117°39'713.3
2018-Jun-12 05:00N 32°52' W 117°34'713.4
2018-Jun-12 04:30N 32°46' W 117°29'713.7
2018-Jun-12 04:00N 32°41' W 117°25'713.2
2018-Jun-12 03:30N 32°36' W 117°19'10 6.9
2018-Jun-12 02:02N 32°40' W 117°08'0 5.6
2018-Jun-12 01:59N 32°39' W 117°07'0 0.4
2018-Jun-12 01:28N 32°39' W 117°07'13 1.6
2018-Jun-11 17:17N 32°37' W 117°22'312.2
2018-Jun-11 17:00N 32°38' W 117°26'613.1
2018-Jun-11 16:30N 32°38' W 117°34'713.0
2018-Jun-11 16:00N 32°39' W 117°42'612.3
2018-Jun-11 15:30N 32°39' W 117°49'510.8
2018-Jun-11 15:00N 32°35' W 117°54'1 2.8
2018-Jun-11 14:29N 32°36' W 117°55'814.0
2018-Jun-11 13:55N 32°36' W 118°05'914.6
2018-Jun-11 13:18N 32°36' W 118°16'414.7
2018-Jun-11 13:00N 32°35' W 118°21'714.2
2018-Jun-11 12:30N 32°35' W 118°29'715.0
2018-Jun-11 12:00N 32°34' W 118°38'816.2
2018-Jun-11 11:30N 32°33' W 118°48'816.2
2018-Jun-11 11:00N 32°33' W 118°57'916.6
2018-Jun-11 10:27N 32°34' W 119°08'817.1
2018-Jun-11 10:00N 32°37' W 119°16'816.9
2018-Jun-11 09:30N 32°39' W 119°26'2616.4
2018-Jun-11 07:56N 32°47' W 119°55'716.3
2018-Jun-11 07:30N 32°49' W 120°03'1116.5
2018-Jun-11 06:49N 32°52' W 120°16'516.5
2018-Jun-11 06:30N 32°53' W 120°22'816.8
2018-Jun-11 06:00N 32°55' W 120°32'816.8
2018-Jun-11 05:30N 32°58' W 120°41'816.4
2018-Jun-11 05:00N 33°00' W 120°50'816.2
2018-Jun-11 04:29N 33°03' W 121°00'1016.3
2018-Jun-11 03:54N 33°06' W 121°11'616.1
2018-Jun-11 03:30N 33°08' W 121°18'815.8
2018-Jun-11 03:00N 33°10' W 121°27'816.2
2018-Jun-11 02:30N 33°12' W 121°37'816.4
2018-Jun-11 02:00N 33°13' W 121°46'816.5
2018-Jun-11 01:30N 33°15' W 121°56'9016.3
2018-Jun-10 19:57N 33°34' W 123°42'1516.1
2018-Jun-10 19:02N 33°37' W 123°59'215.7
2018-Jun-10 18:55N 33°37' W 124°01'  
2018-Jun-08 07:19N 48°23' W 125°12'516.1
2018-Jun-08 07:00N 48°27' W 125°07'815.4
2018-Jun-08 06:29N 48°31' W 124°57'817.1
2018-Jun-08 06:00N 48°31' W 124°44'816.6
2018-Jun-08 05:31N 48°28' W 124°33'816.6
2018-Jun-08 05:00N 48°24' W 124°21'816.2
2018-Jun-08 04:30N 48°21' W 124°10'816.1
2018-Jun-08 04:00N 48°18' W 123°58'2613.0
2018-Jun-08 02:00N 48°23' W 123°20'713.7
2018-Jun-08 01:30N 48°27' W 123°12'918.0
2018-Jun-08 01:00N 48°37' W 123°14'714.3
2018-Jun-08 00:30N 48°43' W 123°11'916.7
2018-Jun-07 23:59N 48°49' W 123°01'817.1
2018-Jun-07 23:30N 48°55' W 123°09'917.2
2018-Jun-07 23:00N 49°01' W 123°19'610.6
2018-Jun-07 22:28N 49°07' W 123°17'510.4
2018-Jun-07 22:00N 49°07' W 123°10'511.0
2018-Jun-07 21:30N 49°09' W 123°02'510.0
2018-Jun-07 21:00N 49°11' W 122°55'0 0.4
2018-Jun-07 20:28N 49°11' W 122°55'0 0.0
2018-Jun-07 19:58N 49°11' W 122°55'0 0.0
2018-Jun-07 19:28N 49°11' W 122°55'0 0.1
2018-Jun-07 18:58N 49°11' W 122°55'0 0.1
2018-Jun-07 18:28N 49°11' W 122°55'0 0.0
2018-Jun-07 17:58N 49°11' W 122°55'0 0.0
2018-Jun-07 17:28N 49°11' W 122°55'0 0.0
2018-Jun-07 16:58N 49°11' W 122°55'0 0.0
2018-Jun-07 16:28N 49°11' W 122°55'0 0.0
2018-Jun-07 15:58N 49°11' W 122°55'0 0.0
2018-Jun-07 15:19N 49°11' W 122°55'0 0.0
2018-Jun-07 14:58N 49°11' W 122°55'0 0.0
2018-Jun-07 14:28N 49°11' W 122°55'0 0.0
2018-Jun-07 13:52N 49°11' W 122°55'0 0.0
2018-Jun-07 13:28N 49°11' W 122°55'0 0.0
2018-Jun-07 12:58N 49°11' W 122°55'0 0.0
2018-Jun-07 12:28N 49°11' W 122°55'0 0.0
2018-Jun-07 11:58N 49°11' W 122°55'0 0.0
2018-Jun-07 11:28N 49°11' W 122°55'0 0.0
2018-Jun-07 10:58N 49°11' W 122°55'0 0.0
2018-Jun-07 10:28N 49°11' W 122°55'0 0.0
2018-Jun-07 09:58N 49°11' W 122°55'0 0.0
2018-Jun-07 09:28N 49°11' W 122°55'0 0.0
2018-Jun-07 08:58N 49°11' W 122°55'0 0.0
2018-Jun-07 08:28N 49°11' W 122°55'0 0.0
2018-Jun-07 07:58N 49°11' W 122°55'0 0.0
2018-Jun-07 07:28N 49°11' W 122°55'0 0.0
2018-Jun-07 06:58N 49°11' W 122°55'0 0.0
2018-Jun-07 06:28N 49°11' W 122°55'0 0.0
2018-Jun-07 06:00N 49°11' W 122°55'1 2.0
2018-Jun-07 05:30N 49°10' W 122°56'5 9.3
2018-Jun-07 04:58N 49°09' W 123°03'511.5
2018-Jun-07 04:30N 49°07' W 123°11'612.5
2018-Jun-07 04:00N 49°06' W 123°20'5 8.7
2018-Jun-07 03:29N 49°01' W 123°17'816.4
2018-Jun-07 03:00N 48°56' W 123°08'916.7
2018-Jun-07 02:29N 48°49' W 123°00'715.3
2018-Jun-07 02:00N 48°44' W 123°09'713.2
2018-Jun-07 01:30N 48°38' W 123°14'815.5
2018-Jun-07 01:01N 48°31' W 123°11'714.0
2018-Jun-07 00:31N 48°24' W 123°13'712.4
2018-Jun-06 23:56N 48°22' W 123°23'1 3.2
2018-Jun-06 23:30N 48°21' W 123°21'0 0.2
2018-Jun-06 21:36N 48°21' W 123°21'0 0.0
2018-Jun-06 21:17N 48°21' W 123°21'0 0.0
2018-Jun-06 20:59N 48°21' W 123°21'0 0.1
2018-Jun-06 20:19N 48°21' W 123°21'0 0.0
2018-Jun-06 19:54N 48°21' W 123°21'0 0.0
2018-Jun-06 19:30N 48°21' W 123°21'0 0.0
2018-Jun-06 18:45N 48°21' W 123°21'0 0.0
2018-Jun-06 17:06N 48°21' W 123°21'0 0.0
2018-Jun-06 16:56N 48°21' W 123°21'0 0.0
2018-Jun-06 16:30N 48°21' W 123°21'0 0.0
2018-Jun-06 15:51N 48°21' W 123°21'0 0.1
2018-Jun-06 15:31N 48°21' W 123°21'2 3.0
2018-Jun-06 14:59N 48°20' W 123°22'1110.2
2018-Jun-06 13:54N 48°09' W 123°21'613.8
2018-Jun-06 13:30N 48°10' W 123°14'816.7
2018-Jun-06 13:01N 48°12' W 123°02'917.1
2018-Jun-06 12:29N 48°11' W 122°48'817.9
2018-Jun-06 12:00N 48°05' W 122°39'917.8
2018-Jun-06 11:29N 47°57' W 122°33'714.3
2018-Jun-06 11:00N 47°51' W 122°28'816.9
2018-Jun-06 10:30N 47°43' W 122°27'917.1
2018-Jun-06 10:00N 47°34' W 122°27'917.2
2018-Jun-06 09:30N 47°26' W 122°23'714.1
2018-Jun-06 09:01N 47°19' W 122°27'4 6.8
2018-Jun-06 08:29N 47°16' W 122°24'1 2.3
2018-Jun-06 07:57N 47°15' W 122°23'0 0.0
2018-Jun-05 21:16N 47°15' W 122°23'0 0.9
2018-Jun-05 21:00N 47°16' W 122°23'2 4.0
2018-Jun-05 20:29N 47°17' W 122°25'4 9.1
2018-Jun-05 20:00N 47°21' W 122°25'713.1
2018-Jun-05 19:30N 47°28' W 122°25'816.0
2018-Jun-05 19:00N 47°36' W 122°28'815.7
2018-Jun-05 18:30N 47°44' W 122°27'815.6
2018-Jun-05 18:00N 47°51' W 122°29'814.4
2018-Jun-05 17:26N 47°58' W 122°36'5711.3
2018-Jun-05 12:26N 48°14' W 123°57'4 9.3
2018-Jun-05 12:00N 48°16' W 124°02'6 9.8
2018-Jun-05 11:26N 48°18' W 124°10'410.0
2018-Jun-05 11:01N 48°20' W 124°16'5 9.3
2018-Jun-05 10:30N 48°22' W 124°22'510.1
2018-Jun-05 10:00N 48°24' W 124°29'510.1
2018-Jun-05 09:30N 48°26' W 124°36'5 9.9
2018-Jun-05 09:01N 48°28' W 124°43'510.0
2018-Jun-05 08:30N 48°29' W 124°51'510.6
2018-Jun-05 08:00N 48°28' W 124°59'611.2
2018-Jun-05 07:30N 48°28' W 125°07'611.4
2018-Jun-05 06:57N 48°28' W 125°17'511.5
2018-Jun-05 06:30N 48°29' W 125°24'612.0
2018-Jun-05 06:00N 48°29' W 125°33'611.9
2018-Jun-05 05:29N 48°29' W 125°43'511.8
2018-Jun-05 05:00N 48°30' W 125°51'611.9
2018-Jun-05 04:30N 48°30' W 126°00'612.1
2018-Jun-05 03:58N 48°30' W 126°10'  
Track history (hours):
 
Tides and Currents Weather Stations Pressure Air Temp Water Temp Dewpoint Dewpoint Depression Visibility Wind Speed Wind Dir Waves Ship Positions

Jupiter Spirit

Last reported at 2018-Jun-13 09:35 UTC. Time now 2018-Jun-20 02:10 UTC.
Position N 31°43' W 118°11'.

Length 183 m; draft 7.9 m.

Type: Cargo ship. MMSI: 636015173.

Date/timePositionNaut miles runAvg speedWind from/ knotsBaromVisibWave heightAir tempDewpointWater temp
2018-Jun-13 09:35N 31°43' W 118°11'118.7
2018-Jun-13 09:31N 31°44' W 118°10'1019.2
2018-Jun-13 08:59N 31°54' W 118°06'818.1
2018-Jun-13 08:31N 32°02' W 118°02'918.0
2018-Jun-13 08:00N 32°10' W 117°59'918.3
2018-Jun-13 07:31N 32°19' W 117°55'1018.3
2018-Jun-13 06:59N 32°27' W 117°50'918.4
2018-Jun-13 06:31N 32°35' W 117°46'918.3
2018-Jun-13 06:01N 32°44' W 117°50'917.0
2018-Jun-13 05:30N 32°52' W 117°53'816.8
2018-Jun-13 05:01N 32°60' W 117°57'713.8
2018-Jun-13 04:30N 33°06' W 117°60'510.4
2018-Jun-13 04:00N 33°11' W 118°02'510.3
2018-Jun-13 03:30N 33°16' W 118°04'510.3
2018-Jun-13 03:00N 33°21' W 118°07'610.4
2018-Jun-13 02:27N 33°26' W 118°09'510.5
2018-Jun-13 02:00N 33°30' W 118°11'510.7
2018-Jun-13 01:30N 33°35' W 118°13'510.9
2018-Jun-13 01:00N 33°41' W 118°14'4 7.3
2018-Jun-13 00:30N 33°44' W 118°16'2 4.8
2018-Jun-13 00:00N 33°46' W 118°15'0 0.1
2018-Jun-12 23:28N 33°46' W 118°15'0 0.0
2018-Jun-12 22:58N 33°46' W 118°15'0 0.0
2018-Jun-12 22:28N 33°46' W 118°15'0 0.0
2018-Jun-12 21:58N 33°46' W 118°15'0 0.0
2018-Jun-12 21:28N 33°46' W 118°15'0 0.0
2018-Jun-12 20:58N 33°46' W 118°15'0 0.0
2018-Jun-12 20:28N 33°46' W 118°15'0 0.0
2018-Jun-12 19:58N 33°46' W 118°15'0 0.0
2018-Jun-12 19:28N 33°46' W 118°15'0 0.0
2018-Jun-12 18:55N 33°46' W 118°15'0 0.0
2018-Jun-12 18:28N 33°46' W 118°15'0 0.0
2018-Jun-12 17:58N 33°46' W 118°15'0 0.0
2018-Jun-12 17:28N 33°46' W 118°15'0 0.0
2018-Jun-12 16:58N 33°46' W 118°15'0 0.0
2018-Jun-12 16:28N 33°46' W 118°15'0 0.0
2018-Jun-12 15:58N 33°46' W 118°15'0 0.0
2018-Jun-12 15:28N 33°46' W 118°15'0 0.0
2018-Jun-12 14:58N 33°46' W 118°15'0 0.0
2018-Jun-12 14:28N 33°46' W 118°15'0 0.0
2018-Jun-12 13:58N 33°46' W 118°15'0 0.0
2018-Jun-12 13:28N 33°46' W 118°15'0 0.2
2018-Jun-12 13:00N 33°46' W 118°15'1 2.1
2018-Jun-12 12:30N 33°45' W 118°16'2 3.8
2018-Jun-12 12:00N 33°43' W 118°16'2 4.0
2018-Jun-12 11:30N 33°42' W 118°14'3 5.5
2018-Jun-12 11:00N 33°39' W 118°13'4 7.1
2018-Jun-12 10:30N 33°37' W 118°11'3 6.2
2018-Jun-12 10:00N 33°34' W 118°09'5 9.5
2018-Jun-12 09:30N 33°30' W 118°07'3 6.9
2018-Jun-12 09:00N 33°26' W 118°06'4 8.3
2018-Jun-12 08:30N 33°22' W 118°04'5 9.3
2018-Jun-12 08:00N 33°18' W 118°01'5 9.8
2018-Jun-12 07:30N 33°15' W 117°57'5 9.9
2018-Jun-12 07:00N 33°11' W 117°53'611.1
2018-Jun-12 06:30N 33°07' W 117°49'713.1
2018-Jun-12 06:00N 33°02' W 117°44'713.2
2018-Jun-12 05:30N 32°57' W 117°39'713.3
2018-Jun-12 05:00N 32°52' W 117°34'713.4
2018-Jun-12 04:30N 32°46' W 117°29'713.7
2018-Jun-12 04:00N 32°41' W 117°25'713.2
2018-Jun-12 03:30N 32°36' W 117°19'10 6.9
2018-Jun-12 02:02N 32°40' W 117°08'0 5.6
2018-Jun-12 01:59N 32°39' W 117°07'0 0.4
2018-Jun-12 01:28N 32°39' W 117°07'13 1.6
2018-Jun-11 17:17N 32°37' W 117°22'312.2
2018-Jun-11 17:00N 32°38' W 117°26'613.1
2018-Jun-11 16:30N 32°38' W 117°34'713.0
2018-Jun-11 16:00N 32°39' W 117°42'612.3
2018-Jun-11 15:30N 32°39' W 117°49'510.8
2018-Jun-11 15:00N 32°35' W 117°54'1 2.8
2018-Jun-11 14:29N 32°36' W 117°55'814.0
2018-Jun-11 13:55N 32°36' W 118°05'914.6
2018-Jun-11 13:18N 32°36' W 118°16'414.7
2018-Jun-11 13:00N 32°35' W 118°21'714.2
2018-Jun-11 12:30N 32°35' W 118°29'715.0
2018-Jun-11 12:00N 32°34' W 118°38'816.2
2018-Jun-11 11:30N 32°33' W 118°48'816.2
2018-Jun-11 11:00N 32°33' W 118°57'916.6
2018-Jun-11 10:27N 32°34' W 119°08'817.1
2018-Jun-11 10:00N 32°37' W 119°16'816.9
2018-Jun-11 09:30N 32°39' W 119°26'2616.4
2018-Jun-11 07:56N 32°47' W 119°55'716.3
2018-Jun-11 07:30N 32°49' W 120°03'1116.5
2018-Jun-11 06:49N 32°52' W 120°16'516.5
2018-Jun-11 06:30N 32°53' W 120°22'816.8
2018-Jun-11 06:00N 32°55' W 120°32'816.8
2018-Jun-11 05:30N 32°58' W 120°41'816.4
2018-Jun-11 05:00N 33°00' W 120°50'816.2
2018-Jun-11 04:29N 33°03' W 121°00'1016.3
2018-Jun-11 03:54N 33°06' W 121°11'616.1
2018-Jun-11 03:30N 33°08' W 121°18'815.8
2018-Jun-11 03:00N 33°10' W 121°27'816.2
2018-Jun-11 02:30N 33°12' W 121°37'816.4
2018-Jun-11 02:00N 33°13' W 121°46'816.5
2018-Jun-11 01:30N 33°15' W 121°56'9016.3
2018-Jun-10 19:57N 33°34' W 123°42'1516.1
2018-Jun-10 19:02N 33°37' W 123°59'215.7
2018-Jun-10 18:55N 33°37' W 124°01'  
2018-Jun-08 07:19N 48°23' W 125°12'516.1
2018-Jun-08 07:00N 48°27' W 125°07'815.4
2018-Jun-08 06:29N 48°31' W 124°57'817.1
2018-Jun-08 06:00N 48°31' W 124°44'816.6
2018-Jun-08 05:31N 48°28' W 124°33'816.6
2018-Jun-08 05:00N 48°24' W 124°21'816.2
2018-Jun-08 04:30N 48°21' W 124°10'816.1
2018-Jun-08 04:00N 48°18' W 123°58'2613.0
2018-Jun-08 02:00N 48°23' W 123°20'713.7
2018-Jun-08 01:30N 48°27' W 123°12'918.0
2018-Jun-08 01:00N 48°37' W 123°14'714.3
2018-Jun-08 00:30N 48°43' W 123°11'916.7
2018-Jun-07 23:59N 48°49' W 123°01'817.1
2018-Jun-07 23:30N 48°55' W 123°09'917.2
2018-Jun-07 23:00N 49°01' W 123°19'610.6
2018-Jun-07 22:28N 49°07' W 123°17'510.4
2018-Jun-07 22:00N 49°07' W 123°10'511.0
2018-Jun-07 21:30N 49°09' W 123°02'510.0
2018-Jun-07 21:00N 49°11' W 122°55'0 0.4
2018-Jun-07 20:28N 49°11' W 122°55'0 0.0
2018-Jun-07 19:58N 49°11' W 122°55'0 0.0
2018-Jun-07 19:28N 49°11' W 122°55'0 0.1
2018-Jun-07 18:58N 49°11' W 122°55'0 0.1
2018-Jun-07 18:28N 49°11' W 122°55'0 0.0
2018-Jun-07 17:58N 49°11' W 122°55'0 0.0
2018-Jun-07 17:28N 49°11' W 122°55'0 0.0
2018-Jun-07 16:58N 49°11' W 122°55'0 0.0
2018-Jun-07 16:28N 49°11' W 122°55'0 0.0
2018-Jun-07 15:58N 49°11' W 122°55'0 0.0
2018-Jun-07 15:19N 49°11' W 122°55'0 0.0
2018-Jun-07 14:58N 49°11' W 122°55'0 0.0
2018-Jun-07 14:28N 49°11' W 122°55'0 0.0
2018-Jun-07 13:52N 49°11' W 122°55'0 0.0
2018-Jun-07 13:28N 49°11' W 122°55'0 0.0
2018-Jun-07 12:58N 49°11' W 122°55'0 0.0
2018-Jun-07 12:28N 49°11' W 122°55'0 0.0
2018-Jun-07 11:58N 49°11' W 122°55'0 0.0
2018-Jun-07 11:28N 49°11' W 122°55'0 0.0
2018-Jun-07 10:58N 49°11' W 122°55'0 0.0
2018-Jun-07 10:28N 49°11' W 122°55'0 0.0
2018-Jun-07 09:58N 49°11' W 122°55'0 0.0
2018-Jun-07 09:28N 49°11' W 122°55'0 0.0
2018-Jun-07 08:58N 49°11' W 122°55'0 0.0
2018-Jun-07 08:28N 49°11' W 122°55'0 0.0
2018-Jun-07 07:58N 49°11' W 122°55'0 0.0
2018-Jun-07 07:28N 49°11' W 122°55'0 0.0
2018-Jun-07 06:58N 49°11' W 122°55'0 0.0
2018-Jun-07 06:28N 49°11' W 122°55'0 0.0
2018-Jun-07 06:00N 49°11' W 122°55'1 2.0
2018-Jun-07 05:30N 49°10' W 122°56'5 9.3
2018-Jun-07 04:58N 49°09' W 123°03'511.5
2018-Jun-07 04:30N 49°07' W 123°11'612.5
2018-Jun-07 04:00N 49°06' W 123°20'5 8.7
2018-Jun-07 03:29N 49°01' W 123°17'816.4
2018-Jun-07 03:00N 48°56' W 123°08'916.7
2018-Jun-07 02:29N 48°49' W 123°00'715.3
2018-Jun-07 02:00N 48°44' W 123°09'713.2
2018-Jun-07 01:30N 48°38' W 123°14'815.5
2018-Jun-07 01:01N 48°31' W 123°11'714.0
2018-Jun-07 00:31N 48°24' W 123°13'712.4
2018-Jun-06 23:56N 48°22' W 123°23'1 3.2
2018-Jun-06 23:30N 48°21' W 123°21'0 0.2
2018-Jun-06 21:36N 48°21' W 123°21'0 0.0
2018-Jun-06 21:17N 48°21' W 123°21'0 0.0
2018-Jun-06 20:59N 48°21' W 123°21'0 0.1
2018-Jun-06 20:19N 48°21' W 123°21'0 0.0
2018-Jun-06 19:54N 48°21' W 123°21'0 0.0
2018-Jun-06 19:30N 48°21' W 123°21'0 0.0
2018-Jun-06 18:45N 48°21' W 123°21'0 0.0
2018-Jun-06 17:06N 48°21' W 123°21'0 0.0
2018-Jun-06 16:56N 48°21' W 123°21'0 0.0
2018-Jun-06 16:30N 48°21' W 123°21'0 0.0
2018-Jun-06 15:51N 48°21' W 123°21'0 0.1
2018-Jun-06 15:31N 48°21' W 123°21'2 3.0
2018-Jun-06 14:59N 48°20' W 123°22'1110.2
2018-Jun-06 13:54N 48°09' W 123°21'613.8
2018-Jun-06 13:30N 48°10' W 123°14'816.7
2018-Jun-06 13:01N 48°12' W 123°02'917.1
2018-Jun-06 12:29N 48°11' W 122°48'817.9
2018-Jun-06 12:00N 48°05' W 122°39'917.8
2018-Jun-06 11:29N 47°57' W 122°33'714.3
2018-Jun-06 11:00N 47°51' W 122°28'816.9
2018-Jun-06 10:30N 47°43' W 122°27'917.1
2018-Jun-06 10:00N 47°34' W 122°27'917.2
2018-Jun-06 09:30N 47°26' W 122°23'714.1
2018-Jun-06 09:01N 47°19' W 122°27'4 6.8
2018-Jun-06 08:29N 47°16' W 122°24'1 2.3
2018-Jun-06 07:57N 47°15' W 122°23'0 0.0
2018-Jun-05 21:16N 47°15' W 122°23'0 0.9
2018-Jun-05 21:00N 47°16' W 122°23'2 4.0
2018-Jun-05 20:29N 47°17' W 122°25'4 9.1
2018-Jun-05 20:00N 47°21' W 122°25'713.1
2018-Jun-05 19:30N 47°28' W 122°25'816.0
2018-Jun-05 19:00N 47°36' W 122°28'815.7
2018-Jun-05 18:30N 47°44' W 122°27'815.6
2018-Jun-05 18:00N 47°51' W 122°29'814.4
2018-Jun-05 17:26N 47°58' W 122°36'5711.3
2018-Jun-05 12:26N 48°14' W 123°57'4 9.3
2018-Jun-05 12:00N 48°16' W 124°02'6 9.8
2018-Jun-05 11:26N 48°18' W 124°10'410.0
2018-Jun-05 11:01N 48°20' W 124°16'5 9.3
2018-Jun-05 10:30N 48°22' W 124°22'510.1
2018-Jun-05 10:00N 48°24' W 124°29'510.1
2018-Jun-05 09:30N 48°26' W 124°36'5 9.9
2018-Jun-05 09:01N 48°28' W 124°43'510.0
2018-Jun-05 08:30N 48°29' W 124°51'510.6
2018-Jun-05 08:00N 48°28' W 124°59'611.2
2018-Jun-05 07:30N 48°28' W 125°07'611.4
2018-Jun-05 06:57N 48°28' W 125°17'511.5
2018-Jun-05 06:30N 48°29' W 125°24'612.0
2018-Jun-05 06:00N 48°29' W 125°33'611.9
2018-Jun-05 05:29N 48°29' W 125°43'511.8
2018-Jun-05 05:00N 48°30' W 125°51'611.9
2018-Jun-05 04:30N 48°30' W 126°00'612.1
2018-Jun-05 03:58N 48°30' W 126°10'  

Dump ship's entire track history